createdAt,value
2018-06-29T00:01:14.722Z,22.14
2018-06-29T00:03:42.690Z,22.11
2018-06-29T00:06:10.781Z,22.13
2018-06-29T00:08:38.741Z,22.05
2018-06-29T00:11:06.713Z,22.00
2018-06-29T00:13:34.608Z,22.00
2018-06-29T00:16:02.606Z,22.02
2018-06-29T00:18:30.470Z,21.93
2018-06-29T00:20:58.673Z,21.93
2018-06-29T00:23:34.786Z,21.90
2018-06-29T00:26:03.238Z,21.91
2018-06-29T00:28:31.141Z,21.95
2018-06-29T00:30:59.477Z,21.89
2018-06-29T00:33:27.392Z,21.86
2018-06-29T00:35:55.318Z,21.87
2018-06-29T00:38:23.235Z,21.88
2018-06-29T00:40:54.195Z,21.85
2018-06-29T00:43:22.205Z,21.87
2018-06-29T00:45:50.338Z,21.86
2018-06-29T00:48:21.088Z,21.93
2018-06-29T00:50:49.185Z,21.86
2018-06-29T00:53:17.026Z,21.82
2018-06-29T00:55:44.969Z,21.92
2018-06-29T00:58:12.873Z,21.90
2018-06-29T01:00:40.834Z,21.84
2018-06-29T01:03:08.737Z,21.85
2018-06-29T01:05:36.709Z,21.77
2018-06-29T01:08:04.657Z,21.71
2018-06-29T01:10:32.589Z,21.78
2018-06-29T01:13:00.609Z,21.79
2018-06-29T01:15:28.573Z,21.74
2018-06-29T01:17:56.464Z,21.71
2018-06-29T01:20:24.400Z,21.71
2018-06-29T01:22:52.566Z,21.66
2018-06-29T01:25:20.488Z,21.60
2018-06-29T01:27:48.440Z,21.57
2018-06-29T01:30:16.360Z,21.57
2018-06-29T01:32:44.321Z,21.59
2018-06-29T01:35:12.273Z,21.58
2018-06-29T01:37:40.177Z,21.56
2018-06-29T01:40:08.109Z,21.51
2018-06-29T01:42:35.964Z,21.52
2018-06-29T01:45:04.621Z,21.52
2018-06-29T01:47:35.968Z,21.47
2018-06-29T01:50:03.977Z,21.51
2018-06-29T01:52:31.931Z,21.44
2018-06-29T01:54:59.821Z,21.44
2018-06-29T01:57:27.675Z,21.39
2018-06-29T01:59:55.609Z,21.36
2018-06-29T02:02:23.517Z,21.38
2018-06-29T02:04:51.410Z,21.40
2018-06-29T02:07:19.272Z,21.36
2018-06-29T02:09:47.162Z,21.35
2018-06-29T02:12:15.190Z,21.31
2018-06-29T02:14:43.003Z,21.37
2018-06-29T02:17:10.925Z,21.33
2018-06-29T02:19:38.853Z,21.25
2018-06-29T02:22:06.861Z,21.28
2018-06-29T02:24:34.854Z,21.25
2018-06-29T02:27:02.728Z,21.25
2018-06-29T02:29:30.541Z,21.26
2018-06-29T02:31:58.422Z,21.21
2018-06-29T02:34:26.333Z,21.23
2018-06-29T02:36:54.217Z,21.21
2018-06-29T02:39:22.106Z,21.18
2018-06-29T02:41:50.117Z,21.13
2018-06-29T02:44:17.917Z,21.15
2018-06-29T02:46:45.861Z,21.04
2018-06-29T02:49:13.782Z,21.09
2018-06-29T02:51:41.816Z,21.02
2018-06-29T02:54:09.789Z,21.08
2018-06-29T02:56:37.665Z,21.06
2018-06-29T02:59:05.608Z,20.99
2018-06-29T03:01:33.529Z,20.96
2018-06-29T03:04:01.906Z,20.99
2018-06-29T03:06:29.748Z,20.99
2018-06-29T03:08:57.635Z,20.92
2018-06-29T03:11:25.555Z,20.90
2018-06-29T03:13:53.469Z,20.85
2018-06-29T03:16:21.436Z,20.91
2018-06-29T03:18:49.253Z,20.86
2018-06-29T03:21:17.166Z,20.85
2018-06-29T03:23:45.085Z,20.81
2018-06-29T03:26:13.005Z,20.76
2018-06-29T03:28:40.925Z,20.80
2018-06-29T03:31:08.873Z,20.77
2018-06-29T03:33:36.745Z,20.75
2018-06-29T03:36:04.717Z,20.71
2018-06-29T03:38:32.632Z,20.74
2018-06-29T03:41:00.521Z,20.76
2018-06-29T03:43:28.412Z,20.75
2018-06-29T03:45:56.345Z,20.72
2018-06-29T03:48:24.232Z,20.69
2018-06-29T03:50:52.194Z,20.70
2018-06-29T03:53:20.126Z,20.62
2018-06-29T03:55:47.972Z,20.72
2018-06-29T03:58:15.924Z,20.60
2018-06-29T04:00:43.821Z,20.58
2018-06-29T04:03:11.693Z,20.61
2018-06-29T04:05:39.630Z,20.63
2018-06-29T04:08:07.471Z,20.62
2018-06-29T04:10:35.394Z,20.59
2018-06-29T04:13:03.439Z,20.58
2018-06-29T04:15:31.202Z,20.59
2018-06-29T04:17:59.073Z,20.55
2018-06-29T04:20:27.015Z,20.60
2018-06-29T04:22:55.453Z,20.56
2018-06-29T04:25:23.378Z,20.58
2018-06-29T04:27:51.309Z,20.57
2018-06-29T04:30:19.301Z,20.60
2018-06-29T04:32:47.232Z,20.58
2018-06-29T04:35:15.201Z,20.58
2018-06-29T04:37:42.997Z,20.57
2018-06-29T04:40:10.965Z,20.62
2018-06-29T04:42:38.885Z,20.62
2018-06-29T04:45:06.848Z,20.62
2018-06-29T04:47:34.770Z,20.61
2018-06-29T04:50:02.669Z,20.66
2018-06-29T04:52:30.525Z,20.69
2018-06-29T04:54:58.477Z,20.70
2018-06-29T04:57:26.405Z,20.69
2018-06-29T04:59:54.329Z,20.75
2018-06-29T05:02:22.252Z,20.76
2018-06-29T05:04:50.165Z,20.77
2018-06-29T05:07:18.177Z,20.78
2018-06-29T05:09:46.153Z,20.80
2018-06-29T05:12:14.073Z,20.88
2018-06-29T05:14:41.960Z,20.93
2018-06-29T05:17:09.829Z,20.99
2018-06-29T05:19:37.905Z,21.10
2018-06-29T05:22:05.884Z,21.17
2018-06-29T05:24:33.783Z,21.23
2018-06-29T05:27:01.656Z,21.22
2018-06-29T05:29:29.660Z,21.30
2018-06-29T05:31:57.622Z,21.32
2018-06-29T05:34:25.477Z,21.41
2018-06-29T05:36:53.434Z,21.46
2018-06-29T05:39:21.323Z,21.58
2018-06-29T05:41:49.238Z,21.71
2018-06-29T05:44:17.069Z,22.05
2018-06-29T05:46:44.939Z,22.71
2018-06-29T05:49:12.811Z,23.17
2018-06-29T05:51:40.650Z,23.62
2018-06-29T05:54:08.488Z,23.90
2018-06-29T05:56:36.366Z,23.96
2018-06-29T05:59:04.731Z,24.15
2018-06-29T06:01:32.668Z,24.15
2018-06-29T06:04:00.604Z,24.16
2018-06-29T06:06:28.553Z,24.23
2018-06-29T06:08:56.497Z,24.46
2018-06-29T06:11:24.385Z,24.74
2018-06-29T06:13:52.327Z,24.98
2018-06-29T06:16:20.273Z,25.07
2018-06-29T06:18:48.329Z,25.42
2018-06-29T06:21:16.215Z,25.53
2018-06-29T06:23:44.131Z,25.81
2018-06-29T06:26:12.053Z,25.76
2018-06-29T06:28:39.934Z,25.74
2018-06-29T06:31:07.828Z,25.97
2018-06-29T06:33:35.722Z,26.06
2018-06-29T06:36:03.641Z,25.96
2018-06-29T06:38:31.513Z,26.09
2018-06-29T06:40:59.420Z,25.98
2018-06-29T06:43:27.296Z,26.11
2018-06-29T06:45:55.241Z,26.01
2018-06-29T06:48:23.197Z,26.05
2018-06-29T06:50:51.125Z,26.21
2018-06-29T06:53:18.997Z,26.06
2018-06-29T06:55:46.925Z,26.40
2018-06-29T06:58:14.753Z,26.57
2018-06-29T07:00:42.644Z,26.67
2018-06-29T07:03:10.545Z,26.85
2018-06-29T07:05:38.389Z,27.09
2018-06-29T07:08:06.341Z,27.10
2018-06-29T07:10:34.220Z,27.29
2018-06-29T07:13:02.080Z,27.26
2018-06-29T07:15:29.964Z,26.87
2018-06-29T07:17:57.781Z,26.89
2018-06-29T07:20:25.597Z,26.96
2018-06-29T07:22:53.501Z,27.06
2018-06-29T07:25:21.353Z,26.98
2018-06-29T07:27:49.269Z,27.18
2018-06-29T07:30:17.192Z,27.07
2018-06-29T07:32:45.103Z,27.24
2018-06-29T07:35:12.965Z,27.36
2018-06-29T07:37:40.833Z,27.53
2018-06-29T07:40:08.733Z,27.84
2018-06-29T07:42:36.605Z,28.08
2018-06-29T07:45:04.944Z,28.28
2018-06-29T07:47:32.901Z,28.55
2018-06-29T07:50:00.760Z,28.62
2018-06-29T07:52:28.680Z,28.69
2018-06-29T07:54:56.620Z,28.91
2018-06-29T07:57:24.517Z,29.17
2018-06-29T07:59:52.394Z,29.15
2018-06-29T08:02:20.253Z,29.42
2018-06-29T08:04:52.455Z,29.47
2018-06-29T08:07:21.142Z,29.47
2018-06-29T08:09:49.061Z,29.46
2018-06-29T08:12:17.228Z,29.69
2018-06-29T08:14:45.160Z,29.77
2018-06-29T08:17:12.997Z,29.64
2018-06-29T08:19:40.873Z,29.91
2018-06-29T08:22:08.759Z,29.69
2018-06-29T08:24:53.570Z,29.76
2018-06-29T08:27:21.505Z,29.98
2018-06-29T08:29:49.386Z,30.01
2018-06-29T08:32:17.337Z,30.23
2018-06-29T08:34:45.146Z,30.49
2018-06-29T08:37:13.041Z,30.24
2018-06-29T08:39:40.977Z,30.64
2018-06-29T08:42:08.834Z,30.62
2018-06-29T08:44:36.713Z,30.64
2018-06-29T08:47:10.312Z,30.41
2018-06-29T08:49:38.284Z,30.82
2018-06-29T08:52:06.254Z,30.94
2018-06-29T08:54:34.161Z,30.85
2018-06-29T08:57:02.109Z,30.65
2018-06-29T08:59:30.018Z,30.50
2018-06-29T09:01:57.966Z,30.36
2018-06-29T09:04:25.776Z,30.20
2018-06-29T09:06:53.666Z,29.74
2018-06-29T09:09:21.537Z,29.52
2018-06-29T09:11:49.417Z,29.22
2018-06-29T09:14:18.392Z,29.27
2018-06-29T09:16:52.118Z,29.39
2018-06-29T09:19:20.135Z,29.30
2018-06-29T09:21:56.901Z,29.32
2018-06-29T09:24:26.689Z,29.20
2018-06-29T09:26:54.582Z,29.03
2018-06-29T09:29:25.517Z,28.98
2018-06-29T09:31:53.457Z,28.76
2018-06-29T09:34:21.341Z,28.81
2018-06-29T09:36:49.835Z,28.70
2018-06-29T09:39:17.729Z,28.91
2018-06-29T09:41:45.577Z,28.92
2018-06-29T09:44:13.662Z,28.92
2018-06-29T09:46:41.641Z,28.97
2018-06-29T09:49:09.576Z,29.04
2018-06-29T09:51:37.469Z,29.29
2018-06-29T09:54:05.624Z,29.63
2018-06-29T09:56:33.544Z,30.36
2018-06-29T09:59:01.602Z,31.18
2018-06-29T10:01:29.595Z,32.42
2018-06-29T10:03:57.415Z,33.53
2018-06-29T10:06:25.317Z,34.68
2018-06-29T10:08:53.116Z,35.56
2018-06-29T10:11:21.036Z,36.27
2018-06-29T10:13:48.936Z,36.77
2018-06-29T10:16:16.807Z,37.35
2018-06-29T10:18:44.629Z,37.80
2018-06-29T10:21:12.549Z,38.61
2018-06-29T10:23:40.421Z,38.75
2018-06-29T10:26:08.302Z,39.33
2018-06-29T10:28:36.242Z,39.42
2018-06-29T10:31:04.093Z,39.87
2018-06-29T10:33:31.950Z,40.68
2018-06-29T10:35:59.900Z,40.95
2018-06-29T10:38:27.757Z,41.27
2018-06-29T10:40:55.681Z,41.81
2018-06-29T10:43:23.541Z,41.99
2018-06-29T10:45:51.341Z,42.64
2018-06-29T10:48:19.241Z,42.55
2018-06-29T10:50:47.115Z,42.62
2018-06-29T10:53:15.042Z,43.09
2018-06-29T10:55:42.983Z,42.97
2018-06-29T10:58:12.909Z,43.54
2018-06-29T11:00:40.928Z,43.62
2018-06-29T11:03:08.749Z,44.05
2018-06-29T11:05:36.680Z,44.10
2018-06-29T11:08:04.749Z,43.76
2018-06-29T11:10:32.641Z,44.17
2018-06-29T11:13:01.686Z,44.05
2018-06-29T11:15:33.579Z,44.37
2018-06-29T11:18:01.472Z,45.04
2018-06-29T11:20:29.364Z,44.17
2018-06-29T11:22:57.201Z,44.07
2018-06-29T11:25:25.075Z,44.28
2018-06-29T11:27:52.901Z,44.60
2018-06-29T11:30:20.776Z,44.64
2018-06-29T11:32:49.040Z,44.84
2018-06-29T11:35:16.959Z,44.97
2018-06-29T11:37:44.789Z,44.91
2018-06-29T11:40:12.747Z,44.74
2018-06-29T11:42:40.706Z,45.02
2018-06-29T11:45:08.599Z,44.82
2018-06-29T11:47:36.684Z,45.26
2018-06-29T11:50:04.972Z,45.20
2018-06-29T11:52:32.883Z,45.34
2018-06-29T11:55:00.784Z,45.50
2018-06-29T11:57:28.709Z,45.37
2018-06-29T11:59:56.601Z,44.97
2018-06-29T12:02:24.400Z,44.25
2018-06-29T12:04:52.301Z,44.26
2018-06-29T12:07:20.263Z,44.35
2018-06-29T12:09:48.065Z,44.33
2018-06-29T12:12:15.989Z,44.34
2018-06-29T12:14:43.948Z,44.36
2018-06-29T12:17:14.592Z,44.31
2018-06-29T12:19:42.703Z,44.05
2018-06-29T12:22:10.543Z,44.27
2018-06-29T12:24:38.468Z,44.04
2018-06-29T12:27:06.341Z,42.98
2018-06-29T12:29:34.181Z,43.55
2018-06-29T12:32:02.041Z,43.75
2018-06-29T12:34:29.996Z,43.96
2018-06-29T12:36:57.968Z,43.82
2018-06-29T12:39:25.817Z,43.71
2018-06-29T12:41:53.665Z,42.57
2018-06-29T12:44:21.549Z,42.41
2018-06-29T12:46:49.374Z,42.29
2018-06-29T12:49:17.277Z,42.43
2018-06-29T12:51:45.195Z,42.42
2018-06-29T12:54:13.141Z,42.11
2018-06-29T12:56:41.069Z,42.14
2018-06-29T12:59:09.873Z,42.11
2018-06-29T13:01:37.853Z,42.21
2018-06-29T13:04:05.804Z,42.26
2018-06-29T13:06:33.800Z,41.95
2018-06-29T13:09:01.706Z,41.65
2018-06-29T13:11:29.508Z,41.22
2018-06-29T13:13:57.457Z,41.00
2018-06-29T13:16:25.277Z,40.79
2018-06-29T13:18:53.164Z,40.88
2018-06-29T13:21:20.989Z,40.72
2018-06-29T13:23:48.890Z,40.44
2018-06-29T13:26:16.725Z,39.87
2018-06-29T13:28:44.517Z,39.71
2018-06-29T13:31:12.388Z,38.81
2018-06-29T13:33:40.283Z,38.58
2018-06-29T13:36:08.171Z,38.31
2018-06-29T13:38:36.065Z,38.16
2018-06-29T13:41:04.037Z,38.07
2018-06-29T13:43:31.936Z,37.92
2018-06-29T13:45:59.824Z,37.74
2018-06-29T13:48:27.632Z,37.70
2018-06-29T13:50:55.521Z,37.34
2018-06-29T13:53:23.473Z,37.17
2018-06-29T13:55:51.349Z,37.08
2018-06-29T13:58:19.215Z,37.14
2018-06-29T14:00:48.222Z,37.11
2018-06-29T14:03:16.129Z,36.78
2018-06-29T14:05:47.585Z,36.74
2018-06-29T14:08:18.563Z,36.62
2018-06-29T14:10:46.596Z,36.52
2018-06-29T14:13:14.411Z,36.34
2018-06-29T14:15:42.451Z,36.33
2018-06-29T14:18:10.341Z,36.06
2018-06-29T14:20:38.272Z,36.18
2018-06-29T14:23:06.272Z,35.97
2018-06-29T14:25:34.193Z,35.85
2018-06-29T14:28:02.090Z,35.67
2018-06-29T14:30:29.962Z,35.40
2018-06-29T14:32:57.845Z,35.26
2018-06-29T14:35:25.689Z,35.15
2018-06-29T14:37:53.985Z,34.74
2018-06-29T14:40:21.869Z,34.47
2018-06-29T14:42:49.789Z,34.55
2018-06-29T14:45:17.718Z,34.48
2018-06-29T14:47:45.597Z,34.24
2018-06-29T14:50:13.488Z,33.95
2018-06-29T14:52:41.324Z,33.93
2018-06-29T14:55:09.272Z,33.90
2018-06-29T14:57:37.230Z,34.00
2018-06-29T15:00:07.892Z,33.65
2018-06-29T15:02:35.769Z,33.41
2018-06-29T15:05:03.726Z,33.65
2018-06-29T15:07:31.617Z,33.61
2018-06-29T15:09:59.505Z,33.59
2018-06-29T15:12:27.393Z,33.37
2018-06-29T15:14:55.277Z,32.85
2018-06-29T15:17:23.140Z,33.08
2018-06-29T15:19:50.971Z,32.84
2018-06-29T15:22:18.921Z,32.79
2018-06-29T15:24:46.781Z,32.64
2018-06-29T15:27:14.693Z,32.85
2018-06-29T15:29:42.709Z,32.77
2018-06-29T15:32:10.569Z,32.97
2018-06-29T15:34:38.653Z,32.87
2018-06-29T15:37:06.698Z,32.68
2018-06-29T15:39:34.585Z,32.42
2018-06-29T15:42:03.819Z,32.36
2018-06-29T15:44:33.202Z,32.78
2018-06-29T15:47:04.699Z,32.58
2018-06-29T15:49:38.526Z,32.68
2018-06-29T15:52:06.470Z,32.74
2018-06-29T15:54:35.773Z,32.51
2018-06-29T15:57:03.688Z,32.46
2018-06-29T15:59:31.548Z,32.50
2018-06-29T16:01:59.618Z,32.47
2018-06-29T16:04:27.556Z,32.36
2018-06-29T16:06:55.779Z,32.09
2018-06-29T16:09:23.656Z,32.04
2018-06-29T16:11:51.874Z,32.05
2018-06-29T16:14:19.705Z,32.11
2018-06-29T16:16:47.601Z,32.17
2018-06-29T16:19:15.581Z,32.15
2018-06-29T16:21:43.502Z,32.08
2018-06-29T16:24:11.555Z,32.03
2018-06-29T16:26:39.585Z,31.97
2018-06-29T16:29:07.490Z,31.95
2018-06-29T16:31:35.390Z,31.83
2018-06-29T16:34:03.361Z,31.81
2018-06-29T16:36:31.321Z,31.74
2018-06-29T16:38:59.493Z,31.73
2018-06-29T16:41:27.745Z,31.86
2018-06-29T16:43:55.699Z,31.77
2018-06-29T16:46:23.627Z,31.65
2018-06-29T16:48:51.586Z,31.46
2018-06-29T16:51:20.109Z,31.53
2018-06-29T16:53:48.033Z,31.48
2018-06-29T16:56:15.933Z,31.57
2018-06-29T16:58:43.825Z,31.41
2018-06-29T17:01:11.853Z,31.30
2018-06-29T17:03:39.908Z,31.39
2018-06-29T17:06:07.847Z,31.25
2018-06-29T17:08:35.838Z,31.33
2018-06-29T17:11:03.837Z,31.30
2018-06-29T17:13:32.228Z,31.13
2018-06-29T17:16:00.124Z,30.98
2018-06-29T17:18:28.066Z,31.12
2018-06-29T17:20:55.975Z,30.94
2018-06-29T17:23:24.017Z,31.00
2018-06-29T17:25:51.929Z,30.88
2018-06-29T17:28:19.847Z,30.88
2018-06-29T17:30:47.760Z,30.82
2018-06-29T17:33:15.649Z,30.71
2018-06-29T17:35:43.549Z,30.58
2018-06-29T17:38:11.805Z,30.63
2018-06-29T17:40:39.734Z,30.55
2018-06-29T17:43:07.561Z,30.50
2018-06-29T17:45:35.466Z,30.51
2018-06-29T17:48:03.378Z,30.39
2018-06-29T17:50:31.325Z,30.32
2018-06-29T17:52:59.190Z,30.28
2018-06-29T17:55:27.138Z,30.14
2018-06-29T17:57:54.982Z,30.04
2018-06-29T18:00:22.876Z,30.02
2018-06-29T18:02:50.752Z,29.85
2018-06-29T18:05:18.724Z,29.89
2018-06-29T18:07:46.666Z,29.82
2018-06-29T18:10:14.652Z,29.68
2018-06-29T18:12:42.760Z,29.67
2018-06-29T18:15:11.875Z,29.59
2018-06-29T18:17:40.824Z,29.53
2018-06-29T18:20:09.782Z,29.44
2018-06-29T18:22:37.773Z,29.40
2018-06-29T18:25:06.698Z,29.36
2018-06-29T18:27:34.654Z,29.23
2018-06-29T18:30:03.126Z,29.20
2018-06-29T18:32:31.003Z,29.13
2018-06-29T18:35:02.679Z,29.04
2018-06-29T18:37:30.648Z,29.02
2018-06-29T18:39:58.629Z,28.85
2018-06-29T18:42:26.558Z,28.74
2018-06-29T18:44:54.548Z,28.70
2018-06-29T18:47:22.382Z,28.66
2018-06-29T18:49:50.609Z,28.63
2018-06-29T18:52:18.407Z,28.49
2018-06-29T18:54:46.272Z,28.34
2018-06-29T18:57:14.193Z,28.31
2018-06-29T18:59:42.141Z,28.20
2018-06-29T19:02:11.110Z,28.18
2018-06-29T19:04:38.944Z,28.11
2018-06-29T19:07:07.077Z,28.01
2018-06-29T19:09:35.060Z,27.91
2018-06-29T19:12:11.053Z,27.89
2018-06-29T19:14:38.977Z,27.68
2018-06-29T19:17:08.109Z,27.64
2018-06-29T19:19:45.917Z,27.57
2018-06-29T19:22:14.197Z,27.45
2018-06-29T19:24:42.093Z,27.40
2018-06-29T19:27:09.950Z,27.29
2018-06-29T19:29:37.876Z,27.13
2018-06-29T19:32:05.757Z,27.13
2018-06-29T19:34:33.647Z,26.82
2018-06-29T19:37:01.572Z,26.84
2018-06-29T19:39:29.566Z,26.77
2018-06-29T19:41:57.345Z,26.67
2018-06-29T19:44:25.306Z,26.59
2018-06-29T19:46:53.224Z,26.43
2018-06-29T19:49:21.221Z,26.37
2018-06-29T19:51:49.105Z,26.13
2018-06-29T19:54:17.081Z,26.19
2018-06-29T19:56:44.984Z,26.01
2018-06-29T19:59:12.889Z,25.84
2018-06-29T20:01:40.833Z,25.72
2018-06-29T20:04:08.773Z,25.71
2018-06-29T20:06:36.577Z,25.52
2018-06-29T20:09:08.796Z,25.49
2018-06-29T20:11:36.854Z,25.40
2018-06-29T20:14:04.774Z,25.30
2018-06-29T20:16:32.668Z,25.25
2018-06-29T20:19:04.533Z,25.14
2018-06-29T20:21:32.505Z,25.19
2018-06-29T20:24:00.453Z,24.96
2018-06-29T20:26:28.468Z,24.85
2018-06-29T20:28:56.433Z,24.82
2018-06-29T20:31:24.387Z,24.77
2018-06-29T20:33:52.325Z,24.61
2018-06-29T20:36:20.190Z,24.68
2018-06-29T20:38:48.147Z,24.55
2018-06-29T20:41:16.084Z,24.46
2018-06-29T20:43:44.037Z,24.38
2018-06-29T20:46:12.009Z,24.28
2018-06-29T20:48:39.854Z,24.24
2018-06-29T20:51:07.753Z,24.11
2018-06-29T20:53:35.729Z,24.16
2018-06-29T20:56:03.681Z,24.10
2018-06-29T20:58:31.547Z,24.04
2018-06-29T21:00:59.423Z,23.90
2018-06-29T21:03:27.389Z,23.77
2018-06-29T21:05:55.357Z,23.79
2018-06-29T21:08:23.300Z,23.65
2018-06-29T21:10:51.296Z,23.62
2018-06-29T21:13:19.185Z,23.52
2018-06-29T21:15:47.197Z,23.51
2018-06-29T21:18:15.069Z,23.41
2018-06-29T21:20:42.982Z,23.43
2018-06-29T21:23:10.873Z,23.30
2018-06-29T21:25:38.741Z,23.22
2018-06-29T21:28:06.637Z,23.24
2018-06-29T21:30:34.625Z,23.22
2018-06-29T21:33:02.622Z,23.27
2018-06-29T21:35:30.564Z,23.17
2018-06-29T21:37:58.405Z,23.12
2018-06-29T21:40:26.350Z,22.98
2018-06-29T21:42:54.228Z,22.91
2018-06-29T21:45:22.169Z,23.02
2018-06-29T21:47:50.036Z,22.86
2018-06-29T21:50:17.974Z,22.83
2018-06-29T21:52:48.931Z,22.78
2018-06-29T21:55:20.027Z,22.70
2018-06-29T21:57:49.807Z,22.67
2018-06-29T22:00:19.314Z,22.69
2018-06-29T22:02:47.260Z,22.59
2018-06-29T22:05:16.363Z,22.55
2018-06-29T22:07:44.637Z,22.43
2018-06-29T22:10:14.642Z,22.42
2018-06-29T22:12:45.683Z,22.27
2018-06-29T22:15:20.879Z,22.31
2018-06-29T22:17:51.004Z,22.31
2018-06-29T22:20:19.092Z,22.23
2018-06-29T22:22:46.971Z,22.22
2018-06-29T22:25:14.874Z,22.13
2018-06-29T22:27:42.753Z,22.05
2018-06-29T22:30:10.682Z,22.03
2018-06-29T22:32:39.352Z,21.93
2018-06-29T22:35:07.351Z,21.74
2018-06-29T22:37:36.933Z,21.78
2018-06-29T22:40:06.718Z,21.65
2018-06-29T22:42:35.929Z,21.72
2018-06-29T22:45:06.747Z,21.57
2018-06-29T22:47:34.757Z,21.65
2018-06-29T22:50:02.715Z,21.59
2018-06-29T22:52:30.629Z,21.57
2018-06-29T22:54:58.489Z,21.49
2018-06-29T22:57:26.427Z,21.41
2018-06-29T22:59:54.360Z,21.28
2018-06-29T23:02:22.237Z,21.29
2018-06-29T23:04:50.152Z,21.19
2018-06-29T23:07:18.018Z,21.28
2018-06-29T23:09:45.920Z,21.23
2018-06-29T23:12:13.854Z,21.14
2018-06-29T23:14:46.276Z,21.08
2018-06-29T23:17:14.193Z,21.06
2018-06-29T23:19:42.043Z,21.04
2018-06-29T23:22:10.445Z,21.07
2018-06-29T23:24:40.782Z,21.04
2018-06-29T23:27:08.641Z,20.96
2018-06-29T23:29:36.576Z,20.90
2018-06-29T23:32:04.432Z,20.84
2018-06-29T23:34:32.282Z,20.73
2018-06-29T23:37:00.202Z,20.72
2018-06-29T23:39:28.125Z,20.74
2018-06-29T23:41:56.070Z,20.72
2018-06-29T23:44:29.465Z,20.61
2018-06-29T23:46:57.679Z,20.68
2018-06-29T23:49:25.597Z,20.54
2018-06-29T23:51:53.604Z,20.54
2018-06-29T23:54:21.520Z,20.67
2018-06-29T23:56:49.459Z,20.57
2018-06-29T23:59:17.357Z,20.36
